Time;durP1;ratioP1;P1;durP2;ratioP2;P2;SDS_P1;SDS_P2;PMS_P1;PMS_P2;Temp;Humidity;BMP_temperature;BMP_pressure;BME280_temperature;BME280_humidity;BME280_pressure;Samples;Min_cycle;Max_cycle;Signal;HPM_P1;HPM_P2
2023/08/28 00:02:17;;;;;;;2.75;1.83;;;14.40;99.90;;;;;;5050953;28;20051;-58
2023/08/28 00:04:43;;;;;;;6.20;1.85;;;14.30;99.90;;;;;;5084972;28;20093;-57
2023/08/28 00:07:09;;;;;;;3.83;1.73;;;14.30;99.90;;;;;;5069096;28;20085;-56
2023/08/28 00:09:35;;;;;;;4.28;1.88;;;14.20;99.90;;;;;;5072854;28;20048;-59
2023/08/28 00:12:04;;;;;;;4.95;1.42;;;14.20;99.90;;;;;;5067081;28;20139;-58
2023/08/28 00:14:31;;;;;;;2.10;1.20;;;14.20;99.90;;;;;;5069293;28;20050;-57
2023/08/28 00:16:57;;;;;;;2.50;1.52;;;14.20;99.90;;;;;;5071640;28;20055;-57
2023/08/28 00:19:23;;;;;;;2.92;1.45;;;14.10;99.90;;;;;;5053868;28;20032;-57
2023/08/28 00:21:48;;;;;;;4.95;1.80;;;14.10;99.90;;;;;;5072000;28;20458;-56
2023/08/28 00:24:14;;;;;;;8.80;1.60;;;14.10;99.90;;;;;;5050656;28;20040;-58
2023/08/28 00:26:40;;;;;;;3.33;1.30;;;14.10;99.90;;;;;;5095670;28;20123;-57
2023/08/28 00:29:06;;;;;;;2.58;1.67;;;14.10;99.90;;;;;;5086908;28;20526;-56
2023/08/28 00:31:31;;;;;;;2.03;1.60;;;14.10;99.90;;;;;;5052114;28;20039;-58
2023/08/28 00:33:57;;;;;;;2.65;1.50;;;14.10;99.90;;;;;;5085276;28;20040;-57
2023/08/28 00:36:22;;;;;;;3.55;1.45;;;14.10;99.90;;;;;;5071212;28;20083;-58
2023/08/28 00:38:48;;;;;;;3.70;1.40;;;14.10;99.90;;;;;;5070475;28;20048;-58
2023/08/28 00:41:14;;;;;;;5.80;2.25;;;14.10;99.90;;;;;;5034923;28;20115;-57
2023/08/28 00:43:39;;;;;;;4.07;1.60;;;14.10;99.90;;;;;;5066871;28;20040;-56
2023/08/28 00:46:06;;;;;;;3.50;1.27;;;14.10;99.90;;;;;;5087163;28;20048;-57
2023/08/28 00:48:32;;;;;;;2.88;1.50;;;14.10;99.90;;;;;;5047486;28;20045;-57
2023/08/28 00:51:00;;;;;;;4.45;1.63;;;14.10;99.90;;;;;;5086887;28;20432;-57
2023/08/28 00:53:26;;;;;;;2.30;1.50;;;14.10;99.90;;;;;;5063343;28;20047;-57
2023/08/28 00:55:53;;;;;;;2.92;1.67;;;14.10;99.90;;;;;;5080985;28;20055;-57
2023/08/28 00:58:20;;;;;;;3.05;1.50;;;14.10;99.90;;;;;;5087225;28;20748;-58
2023/08/28 01:00:46;;;;;;;4.72;1.88;;;14.10;99.90;;;;;;5067227;28;20090;-58
2023/08/28 01:03:12;;;;;;;4.72;1.70;;;14.10;99.90;;;;;;5084041;28;20068;-58
2023/08/28 01:06:08;;;;;;;6.60;1.70;;;14.10;99.90;;;;;;5084465;28;20066;-56
2023/08/28 01:09:03;;;;;;;3.28;1.55;;;14.10;99.90;;;;;;5084030;28;20081;-58
2023/08/28 01:11:34;;;;;;;;;;;14.00;99.90;;;;;;5064474;28;20040;-56
2023/08/28 01:14:23;;;;;;;6.20;1.80;;;14.00;99.90;;;;;;5053348;28;19920;-58
2023/08/28 01:16:51;;;;;;;3.30;1.60;;;14.00;99.90;;;;;;5068621;28;20056;-59
2023/08/28 01:19:33;;;;;;;7.30;2.67;;;13.90;99.90;;;;;;5051837;28;20260;-58
2023/08/28 01:22:16;;;;;;;4.07;1.90;;;13.90;99.90;;;;;;5066472;28;20101;-58
2023/08/28 01:24:50;;;;;;;2.55;1.40;;;13.80;99.90;;;;;;5063487;28;20056;-58
2023/08/28 01:27:16;;;;;;;;;;;13.80;99.90;;;;;;5070869;28;20028;-58
2023/08/28 01:29:42;;;;;;;2.50;1.58;;;13.80;99.90;;;;;;5068088;28;19969;-58
2023/08/28 01:32:07;;;;;;;2.60;1.65;;;13.70;99.90;;;;;;5068215;28;20036;-59
2023/08/28 01:34:34;;;;;;;5.35;2.58;;;13.70;99.90;;;;;;5067187;28;20266;-57
2023/08/28 01:37:10;;;;;;;5.47;2.15;;;13.60;99.90;;;;;;5068498;28;20127;-58
2023/08/28 01:39:42;;;;;;;3.10;1.88;;;13.60;99.90;;;;;;5085731;28;20591;-58
2023/08/28 01:42:09;;;;;;;2.08;1.80;;;13.60;99.90;;;;;;5089066;28;20039;-57
2023/08/28 01:44:36;;;;;;;4.00;2.10;;;13.60;99.90;;;;;;5095006;28;20457;-58
2023/08/28 01:47:03;;;;;;;3.15;2.00;;;13.60;99.90;;;;;;5065219;28;20048;-57
2023/08/28 01:49:29;;;;;;;3.28;2.30;;;13.60;99.90;;;;;;5072046;28;20048;-58
2023/08/28 01:51:56;;;;;;;4.65;2.40;;;13.60;99.90;;;;;;5054779;28;20036;-58
2023/08/28 01:54:23;;;;;;;5.18;2.60;;;13.50;99.90;;;;;;5071411;28;20043;-58
2023/08/28 01:56:48;;;;;;;7.13;2.03;;;13.50;99.90;;;;;;5087819;28;20452;-58
2023/08/28 01:59:14;;;;;;;6.47;2.75;;;13.50;99.90;;;;;;5067079;28;20032;-58
2023/08/28 02:01:40;;;;;;;2.88;2.15;;;13.50;99.90;;;;;;5049470;28;20042;-58
2023/08/28 02:04:06;;;;;;;6.43;2.55;;;13.50;99.90;;;;;;5055181;28;20036;-58
2023/08/28 02:06:32;;;;;;;6.28;2.78;;;13.50;99.90;;;;;;5068367;28;20043;-58
2023/08/28 02:08:58;;;;;;;3.45;1.95;;;13.40;99.90;;;;;;5048618;28;20040;-58
2023/08/28 02:11:23;;;;;;;4.22;2.42;;;13.50;99.90;;;;;;5089846;28;20036;-58
2023/08/28 02:13:49;;;;;;;4.28;2.58;;;13.40;99.90;;;;;;5072681;28;20039;-58
2023/08/28 02:16:17;;;;;;;6.55;2.33;;;13.40;99.90;;;;;;5069995;28;20406;-58
2023/08/28 02:18:43;;;;;;;4.72;2.63;;;13.40;99.90;;;;;;5069820;28;20042;-58
2023/08/28 02:21:09;;;;;;;3.42;2.50;;;13.40;99.90;;;;;;5088780;28;20511;-58
2023/08/28 02:23:35;;;;;;;5.35;2.35;;;13.40;99.90;;;;;;5071355;28;20039;-58
2023/08/28 02:26:00;;;;;;;4.18;2.25;;;13.30;99.90;;;;;;5072156;28;20561;-58
2023/08/28 02:28:26;;;;;;;3.95;2.38;;;13.30;99.90;;;;;;5074435;28;20067;-58
2023/08/28 02:30:52;;;;;;;6.82;2.75;;;13.30;99.90;;;;;;5084882;28;20162;-58
2023/08/28 02:33:18;;;;;;;3.45;2.33;;;13.30;99.90;;;;;;5088489;28;20048;-58
2023/08/28 02:35:44;;;;;;;4.55;2.95;;;13.30;99.90;;;;;;5072777;28;20507;-58
2023/08/28 02:38:10;;;;;;;4.88;2.50;;;13.20;99.90;;;;;;5053387;28;20036;-58
2023/08/28 02:40:39;;;;;;;3.40;2.25;;;13.20;99.90;;;;;;5065408;28;20046;-58
2023/08/28 02:43:06;;;;;;;4.68;2.45;;;13.20;99.90;;;;;;5071106;28;20122;-58
2023/08/28 02:45:50;;;;;;;8.85;3.20;;;13.20;99.90;;;;;;5084836;28;20078;-58
2023/08/28 02:48:15;;;;;;;3.90;2.13;;;13.10;99.90;;;;;;5069581;28;20040;-58
2023/08/28 02:50:41;;;;;;;4.80;2.80;;;13.10;99.90;;;;;;5071021;28;20407;-58
2023/08/28 02:53:06;;;;;;;4.82;3.05;;;13.10;99.90;;;;;;5068787;28;20040;-57
2023/08/28 02:55:40;;;;;;;5.50;2.80;;;13.00;99.90;;;;;;5070829;28;20044;-57
2023/08/28 02:58:05;;;;;;;4.50;3.47;;;13.00;99.90;;;;;;5069340;28;20039;-57
2023/08/28 03:00:33;;;;;;;4.72;2.28;;;13.00;99.90;;;;;;5083036;28;20032;-54
2023/08/28 03:03:00;;;;;;;7.60;2.65;;;13.00;99.90;;;;;;5065633;28;20119;-57
2023/08/28 03:05:26;;;;;;;5.10;2.85;;;13.00;99.90;;;;;;5068596;28;20081;-57
2023/08/28 03:07:52;;;;;;;6.03;2.67;;;13.00;99.90;;;;;;5066852;28;20032;-58
2023/08/28 03:10:18;;;;;;;3.45;2.53;;;13.00;99.90;;;;;;5067436;28;20085;-58
2023/08/28 03:12:43;;;;;;;6.50;2.63;;;13.00;99.90;;;;;;5069184;28;20506;-58
2023/08/28 03:15:09;;;;;;;4.03;2.45;;;13.00;99.90;;;;;;5070080;28;20153;-58
2023/08/28 03:17:35;;;;;;;5.80;2.95;;;13.00;99.90;;;;;;5053730;28;20437;-57
2023/08/28 03:20:01;;;;;;;4.25;2.55;;;13.00;99.90;;;;;;5088307;28;20036;-56
2023/08/28 03:22:26;;;;;;;4.43;2.70;;;12.90;99.90;;;;;;5072761;28;20032;-57
2023/08/28 03:24:52;;;;;;;5.22;2.60;;;12.90;99.90;;;;;;5067305;28;20044;-57
2023/08/28 03:27:20;;;;;;;2.88;2.42;;;13.00;99.90;;;;;;5069335;28;20036;-57
2023/08/28 03:29:45;;;;;;;7.57;3.10;;;12.90;99.90;;;;;;5069220;28;20031;-58
2023/08/28 03:32:11;;;;;;;4.50;2.67;;;13.00;99.90;;;;;;5068352;28;20360;-58
2023/08/28 03:34:37;;;;;;;4.22;2.55;;;13.00;99.90;;;;;;5049639;28;20503;-58
2023/08/28 03:37:02;;;;;;;4.32;2.58;;;13.00;99.90;;;;;;5071410;28;20047;-56
2023/08/28 03:39:28;;;;;;;5.88;2.80;;;13.00;99.90;;;;;;5051005;28;20471;-57
2023/08/28 03:41:54;;;;;;;6.10;3.50;;;13.00;99.90;;;;;;5069031;28;20063;-57
2023/08/28 03:44:19;;;;;;;3.55;2.40;;;13.10;99.90;;;;;;5070729;28;20333;-58
2023/08/28 03:46:45;;;;;;;5.25;2.30;;;13.10;99.90;;;;;;5070196;28;20426;-58
2023/08/28 03:49:11;;;;;;;4.78;2.30;;;13.10;99.90;;;;;;5051880;28;20351;-57
2023/08/28 03:51:36;;;;;;;5.90;2.42;;;13.10;99.90;;;;;;5079455;28;20248;-56
2023/08/28 03:54:02;;;;;;;5.72;2.92;;;13.10;99.90;;;;;;5055646;28;20101;-57
2023/08/28 03:56:29;;;;;;;6.15;2.50;;;13.10;99.90;;;;;;5062979;28;20367;-58
2023/08/28 03:58:55;;;;;;;4.13;2.60;;;13.10;99.90;;;;;;5067105;28;20097;-58
2023/08/28 04:01:21;;;;;;;2.38;1.90;;;13.10;99.90;;;;;;5065840;28;20048;-58
2023/08/28 04:03:47;;;;;;;3.92;2.22;;;13.20;99.90;;;;;;5051384;28;20448;-58
2023/08/28 04:06:13;;;;;;;3.45;1.90;;;13.20;99.90;;;;;;5083190;28;20032;-57
2023/08/28 04:08:38;;;;;;;2.88;2.22;;;13.20;99.90;;;;;;5066153;28;20028;-58
2023/08/28 04:11:04;;;;;;;5.05;2.30;;;13.20;99.90;;;;;;5051703;28;20032;-59
2023/08/28 04:13:30;;;;;;;6.28;2.67;;;13.20;99.90;;;;;;5063927;28;20040;-57
2023/08/28 04:15:56;;;;;;;6.20;2.75;;;13.20;99.90;;;;;;5077245;28;20123;-56
2023/08/28 04:18:22;;;;;;;9.02;5.10;;;13.20;99.90;;;;;;5063572;28;20047;-56
2023/08/28 04:20:48;;;;;;;9.38;6.35;;;13.10;99.90;;;;;;5079564;28;20028;-56
2023/08/28 04:23:13;;;;;;;9.55;5.32;;;13.10;99.90;;;;;;5067152;28;20413;-58
2023/08/28 04:25:39;;;;;;;6.20;3.72;;;13.10;99.90;;;;;;5053064;28;20079;-57
2023/08/28 04:28:05;;;;;;;4.72;3.33;;;13.10;99.90;;;;;;5062884;28;20071;-57
2023/08/28 04:30:31;;;;;;;4.47;2.95;;;13.10;99.90;;;;;;5068196;28;20506;-56
2023/08/28 04:32:56;;;;;;;4.03;2.08;;;13.00;99.90;;;;;;5064274;28;20040;-58
2023/08/28 04:35:22;;;;;;;4.55;2.83;;;13.00;99.90;;;;;;5053272;28;20055;-58
2023/08/28 04:37:50;;;;;;;6.03;2.50;;;13.00;99.90;;;;;;5070636;28;20085;-57
2023/08/28 04:40:37;;;;;;;5.88;3.17;;;13.00;99.90;;;;;;5069737;28;20486;-57
2023/08/28 04:43:06;;;;;;;3.28;2.33;;;12.90;99.90;;;;;;5080609;28;20044;-57
2023/08/28 04:45:32;;;;;;;4.90;3.10;;;12.90;99.90;;;;;;5061319;28;20119;-57
2023/08/28 04:47:57;;;;;;;4.40;3.55;;;12.90;99.90;;;;;;5085835;28;20044;-57
2023/08/28 04:50:23;;;;;;;8.23;2.65;;;12.90;99.90;;;;;;5066450;28;20044;-58
2023/08/28 04:52:49;;;;;;;4.97;2.72;;;12.90;99.90;;;;;;5065448;28;20040;-57
2023/08/28 04:55:14;;;;;;;3.53;2.67;;;12.90;99.90;;;;;;5050389;28;20044;-57
2023/08/28 04:57:40;;;;;;;5.75;3.97;;;12.90;99.90;;;;;;5066977;28;20122;-57
2023/08/28 05:00:07;;;;;;;5.35;3.15;;;12.90;99.90;;;;;;5063826;28;20036;-58
2023/08/28 05:02:32;;;;;;;4.65;2.47;;;12.90;99.90;;;;;;5066920;28;20048;-59
2023/08/28 05:04:58;;;;;;;4.03;2.25;;;12.80;99.90;;;;;;5050831;28;20479;-58
2023/08/28 05:07:24;;;;;;;4.72;2.70;;;12.80;99.90;;;;;;5087354;28;20466;-58
2023/08/28 05:09:50;;;;;;;3.92;2.45;;;12.80;99.90;;;;;;5048230;28;20040;-57
2023/08/28 05:12:15;;;;;;;3.42;2.75;;;12.80;99.90;;;;;;5067930;28;20046;-58
2023/08/28 05:14:41;;;;;;;6.68;2.25;;;12.80;99.90;;;;;;5056601;28;20358;-58
2023/08/28 05:17:06;;;;;;;5.28;2.53;;;12.70;99.90;;;;;;5054614;28;20055;-58
2023/08/28 05:19:32;;;;;;;4.22;2.40;;;12.70;99.90;;;;;;5063284;28;20044;-58
2023/08/28 05:21:58;;;;;;;3.25;2.60;;;12.70;99.90;;;;;;5053469;28;20324;-58
2023/08/28 05:24:24;;;;;;;5.38;2.63;;;12.70;99.90;;;;;;5050985;28;20079;-58
2023/08/28 05:26:49;;;;;;;4.05;2.70;;;12.80;99.90;;;;;;5076318;28;20531;-58
2023/08/28 05:29:15;;;;;;;4.15;3.47;;;12.80;99.90;;;;;;5072100;28;20040;-58
2023/08/28 05:31:41;;;;;;;3.83;2.88;;;12.80;99.90;;;;;;5066168;28;20495;-58
2023/08/28 05:34:06;;;;;;;3.53;2.70;;;12.80;99.90;;;;;;5068657;28;20036;-58
2023/08/28 05:36:32;;;;;;;5.10;2.60;;;12.80;99.90;;;;;;5078420;28;20066;-58
2023/08/28 05:38:58;;;;;;;4.78;2.90;;;12.80;99.90;;;;;;5075340;28;20052;-58
2023/08/28 05:41:23;;;;;;;5.32;3.10;;;12.80;99.90;;;;;;5085434;28;20032;-58
2023/08/28 05:43:49;;;;;;;4.82;2.80;;;12.90;99.90;;;;;;5052406;28;20096;-58
2023/08/28 05:46:15;;;;;;;5.20;3.03;;;12.90;99.90;;;;;;5069482;28;20044;-58
2023/08/28 05:48:40;;;;;;;5.38;2.78;;;12.90;99.90;;;;;;5070428;28;20036;-58
2023/08/28 05:51:06;;;;;;;4.20;3.17;;;13.00;99.90;;;;;;5053313;28;20052;-58
2023/08/28 05:53:32;;;;;;;6.60;3.30;;;13.00;99.90;;;;;;5045368;28;20051;-58
2023/08/28 05:55:58;;;;;;;5.03;2.60;;;13.10;99.90;;;;;;5048005;28;20113;-58
2023/08/28 05:58:24;;;;;;;3.40;2.75;;;13.20;99.90;;;;;;5066745;28;20058;-59
2023/08/28 06:00:50;;;;;;;6.65;3.42;;;13.30;99.90;;;;;;5068818;28;20044;-58
2023/08/28 06:03:16;;;;;;;6.32;3.38;;;13.40;99.90;;;;;;5070573;28;20040;-58
2023/08/28 06:05:41;;;;;;;4.47;3.90;;;13.50;99.90;;;;;;5052407;28;20043;-58
2023/08/28 06:08:07;;;;;;;6.28;3.38;;;13.60;99.90;;;;;;5056775;28;20109;-58
2023/08/28 06:10:38;;;;;;;6.43;4.35;;;13.80;99.90;;;;;;5074507;28;20394;-58
2023/08/28 06:13:04;;;;;;;4.25;3.20;;;13.90;99.90;;;;;;5069222;28;20044;-55
2023/08/28 06:15:30;;;;;;;4.80;3.80;;;14.00;99.90;;;;;;5069474;28;20075;-57
2023/08/28 06:17:56;;;;;;;4.93;2.92;;;14.10;99.90;;;;;;5071979;28;20466;-60
2023/08/28 06:20:22;;;;;;;3.90;3.13;;;14.20;99.90;;;;;;5055072;28;20039;-57
2023/08/28 06:22:48;;;;;;;6.50;3.17;;;14.30;99.90;;;;;;5070910;28;20032;-57
2023/08/28 06:25:13;;;;;;;5.53;3.20;;;14.40;99.90;;;;;;5071182;28;20514;-60
2023/08/28 06:27:39;;;;;;;6.35;2.72;;;14.60;99.90;;;;;;5056004;28;20058;-60
2023/08/28 06:30:06;;;;;;;4.90;2.42;;;14.60;99.90;;;;;;5072331;28;20029;-57
2023/08/28 06:32:32;;;;;;;4.55;2.20;;;14.80;99.90;;;;;;5065276;28;20365;-59
2023/08/28 06:34:58;;;;;;;6.03;2.50;;;14.90;99.90;;;;;;5089287;28;20572;-57
2023/08/28 06:37:24;;;;;;;5.75;2.80;;;15.00;99.90;;;;;;5065539;28;20047;-58
2023/08/28 06:39:52;;;;;;;6.10;2.83;;;15.10;99.90;;;;;;5067629;28;20048;-59
2023/08/28 06:42:17;;;;;;;3.65;2.58;;;15.20;99.90;;;;;;5064161;28;20105;-58
2023/08/28 06:44:43;;;;;;;5.57;3.05;;;15.20;99.90;;;;;;5070193;28;20044;-60
2023/08/28 06:47:09;;;;;;;3.53;2.90;;;15.30;99.90;;;;;;5071389;28;20529;-62
2023/08/28 06:49:35;;;;;;;6.28;3.20;;;15.40;99.90;;;;;;5086391;28;20127;-59
2023/08/28 06:52:02;;;;;;;6.50;3.03;;;15.50;99.90;;;;;;5054947;28;20058;-59
2023/08/28 06:54:27;;;;;;;6.00;3.42;;;15.50;99.90;;;;;;5070033;28;20126;-61
2023/08/28 06:56:53;;;;;;;7.95;3.25;;;15.60;99.90;;;;;;5089051;28;20119;-60
2023/08/28 06:59:19;;;;;;;5.40;3.22;;;15.70;99.90;;;;;;5067331;28;20083;-61
2023/08/28 07:01:45;;;;;;;4.82;3.03;;;15.80;99.90;;;;;;5068356;28;20036;-56
2023/08/28 07:04:11;;;;;;;5.47;2.85;;;15.90;99.90;;;;;;5086089;28;20071;-57
2023/08/28 07:06:36;;;;;;;4.90;2.90;;;16.00;99.90;;;;;;5067093;28;20063;-59
2023/08/28 07:09:02;;;;;;;5.18;2.90;;;16.10;99.90;;;;;;5061791;28;20036;-60
2023/08/28 07:11:28;;;;;;;4.15;2.50;;;16.20;99.90;;;;;;5037142;28;20035;-59
2023/08/28 07:13:57;;;;;;;5.65;2.65;;;16.30;99.90;;;;;;5088157;28;20065;-59
2023/08/28 07:16:22;;;;;;;4.55;2.78;;;16.40;99.90;;;;;;5068895;28;20131;-59
2023/08/28 07:18:48;;;;;;;5.53;2.72;;;16.50;99.90;;;;;;5089427;28;20123;-59
2023/08/28 07:21:14;;;;;;;6.72;2.60;;;16.50;99.90;;;;;;5053478;28;20042;-60
2023/08/28 07:23:40;;;;;;;7.15;2.95;;;16.60;99.90;;;;;;5065728;28;20488;-57
2023/08/28 07:26:07;;;;;;;7.93;2.38;;;16.70;99.90;;;;;;5071390;28;20189;-59
2023/08/28 07:28:33;;;;;;;4.00;1.73;;;16.80;99.90;;;;;;5068665;28;20458;-58
2023/08/28 07:31:01;;;;;;;6.10;1.80;;;16.90;99.90;;;;;;5089777;28;20253;-57
2023/08/28 07:33:27;;;;;;;1.98;1.10;;;17.00;99.90;;;;;;5068860;28;20431;-58
2023/08/28 07:35:52;;;;;;;5.47;1.13;;;17.10;99.90;;;;;;5067507;28;20052;-59
2023/08/28 07:38:18;;;;;;;3.45;1.00;;;17.20;99.90;;;;;;5049288;28;20035;-58
2023/08/28 07:40:47;;;;;;;4.07;0.98;;;17.30;99.90;;;;;;5067296;28;20320;-59
2023/08/28 07:43:13;;;;;;;5.18;1.00;;;17.50;99.90;;;;;;5054391;28;20551;-59
2023/08/28 07:45:39;;;;;;;2.55;1.27;;;17.60;99.90;;;;;;5065999;28;20131;-57
2023/08/28 07:48:05;;;;;;;9.65;1.20;;;17.70;99.90;;;;;;5067990;28;20123;-58
2023/08/28 07:50:31;;;;;;;2.50;0.70;;;17.80;99.90;;;;;;5063632;28;20206;-57
2023/08/28 07:52:58;;;;;;;1.90;0.70;;;17.70;99.90;;;;;;5063846;28;20164;-59
2023/08/28 07:55:24;;;;;;;2.90;0.90;;;17.80;99.90;;;;;;5072725;28;20044;-59
2023/08/28 07:57:57;;;;;;;4.13;0.80;;;17.90;99.90;;;;;;5117423;27;20478;-60
2023/08/28 08:00:22;;;;;;;2.10;0.90;;;18.00;99.90;;;;;;5117131;27;20491;-59
2023/08/28 08:02:51;;;;;;;3.58;1.27;;;18.10;99.90;;;;;;5114597;27;20276;-59
2023/08/28 08:05:17;;;;;;;1.92;0.98;;;18.20;99.90;;;;;;5114280;27;20039;-60
2023/08/28 08:07:44;;;;;;;1.92;0.98;;;18.30;99.90;;;;;;5108726;27;20039;-60
2023/08/28 08:10:11;;;;;;;1.80;1.10;;;18.50;99.90;;;;;;5146974;27;20056;-58
2023/08/28 08:12:38;;;;;;;3.15;1.27;;;18.50;99.90;;;;;;5131765;27;20104;-60
2023/08/28 08:15:06;;;;;;;2.53;0.80;;;18.50;99.90;;;;;;5112115;27;20123;-59
2023/08/28 08:17:32;;;;;;;1.85;0.70;;;18.60;99.90;;;;;;5099592;28;20122;-58
2023/08/28 08:19:58;;;;;;;1.15;0.63;;;18.60;99.90;;;;;;5148967;27;20126;-60
2023/08/28 08:22:24;;;;;;;1.65;1.02;;;18.50;99.90;;;;;;5108755;27;20494;-60
2023/08/28 08:24:51;;;;;;;2.45;0.65;;;18.30;99.90;;;;;;5114507;27;20057;-60
2023/08/28 08:27:17;;;;;;;2.03;0.80;;;18.20;99.90;;;;;;5119226;27;20398;-60
2023/08/28 08:29:43;;;;;;;3.08;0.77;;;18.30;99.90;;;;;;5120306;27;20494;-58
2023/08/28 08:32:08;;;;;;;4.10;0.98;;;18.40;99.90;;;;;;5146826;27;20054;-58
2023/08/28 08:34:34;;;;;;;3.63;1.00;;;18.70;99.90;;;;;;5094614;27;20048;-57
2023/08/28 08:37:00;;;;;;;6.60;1.10;;;18.90;99.90;;;;;;5148435;27;20045;-60
2023/08/28 08:39:25;;;;;;;1.88;0.70;;;19.10;99.90;;;;;;5117444;27;20065;-59
2023/08/28 08:41:51;;;;;;;2.10;0.90;;;18.90;99.90;;;;;;5123901;27;20031;-59
2023/08/28 08:44:17;;;;;;;3.13;0.93;;;19.00;99.90;;;;;;5111628;27;20023;-58
2023/08/28 08:46:46;;;;;;;4.20;1.00;;;19.00;99.90;;;;;;5109618;27;20123;-58
2023/08/28 08:49:20;;;;;;;5.07;0.90;;;18.80;99.90;;;;;;5144890;27;20146;-58
2023/08/28 08:51:47;;;;;;;2.53;0.90;;;18.90;99.90;;;;;;5141620;27;20125;-59
2023/08/28 08:54:20;;;;;;;2.90;0.80;;;18.80;99.90;;;;;;5128708;27;20542;-58
2023/08/28 08:56:50;;;;;;;2.00;0.80;;;18.80;99.90;;;;;;5140836;27;20046;-60
2023/08/28 08:59:17;;;;;;;1.95;0.90;;;19.00;99.90;;;;;;5096228;28;20065;-56
2023/08/28 09:01:43;;;;;;;2.05;1.10;;;19.10;99.90;;;;;;5121654;27;20035;-60
2023/08/28 09:04:09;;;;;;;3.28;0.90;;;19.30;99.90;;;;;;5113537;27;20456;-60
2023/08/28 09:06:37;;;;;;;3.45;0.90;;;19.30;99.90;;;;;;5114765;27;20065;-58
2023/08/28 09:09:06;;;;;;;2.35;1.15;;;19.50;99.90;;;;;;5132220;27;20516;-57
2023/08/28 09:11:32;;;;;;;3.85;1.25;;;19.60;99.90;;;;;;5139455;27;20533;-60
2023/08/28 09:13:58;;;;;;;1.65;0.70;;;19.70;99.90;;;;;;5097542;27;20431;-59
2023/08/28 09:16:23;;;;;;;3.28;1.20;;;19.80;99.90;;;;;;5095665;28;20035;-59
2023/08/28 09:18:49;;;;;;;3.10;0.80;;;20.00;99.90;;;;;;5100186;27;20044;-56
2023/08/28 09:21:15;;;;;;;4.28;1.30;;;20.20;99.90;;;;;;5101005;27;20036;-60
2023/08/28 09:23:46;;;;;;;4.75;1.00;;;20.30;99.90;;;;;;5099185;27;20148;-58
2023/08/28 09:26:13;;;;;;;3.53;1.83;;;20.50;99.90;;;;;;5096541;27;20047;-57
2023/08/28 09:28:39;;;;;;;3.50;1.17;;;20.50;99.90;;;;;;5101737;27;20434;-58
2023/08/28 09:31:05;;;;;;;3.55;1.10;;;20.70;99.90;;;;;;5108238;27;20046;-59
2023/08/28 09:33:46;;;;;;;4.47;1.00;;;20.70;99.90;;;;;;5108234;27;20297;-57
2023/08/28 09:36:16;;;;;;;3.85;1.05;;;20.30;99.90;;;;;;5124940;27;20254;-56
2023/08/28 09:38:42;;;;;;;1.75;0.80;;;20.00;99.90;;;;;;5126506;27;20451;-57
2023/08/28 09:41:09;;;;;;;2.50;0.98;;;19.80;99.90;;;;;;5111740;27;20039;-61
2023/08/28 09:43:38;;;;;;;4.88;1.10;;;19.60;99.90;;;;;;5079800;28;20334;-59
2023/08/28 09:46:05;;;;;;;2.88;1.00;;;19.50;99.90;;;;;;5105848;27;20405;-57
2023/08/28 09:48:35;;;;;;;2.90;0.90;;;19.50;99.90;;;;;;5078339;28;20051;-58
2023/08/28 09:51:03;;;;;;;4.72;0.95;;;19.40;99.90;;;;;;5126226;27;20399;-56
2023/08/28 09:53:30;;;;;;;2.50;1.00;;;19.40;99.90;;;;;;5110286;27;20043;-57
2023/08/28 09:55:57;;;;;;;4.70;1.00;;;19.30;99.90;;;;;;5068457;27;20031;-60
2023/08/28 09:58:25;;;;;;;4.97;1.33;;;19.30;99.90;;;;;;5117559;27;20140;-59
2023/08/28 10:00:52;;;;;;;1.60;0.70;;;19.50;99.90;;;;;;5097531;27;20031;-57
2023/08/28 10:03:20;;;;;;;2.15;1.10;;;19.70;99.90;;;;;;5113454;27;20067;-59
2023/08/28 10:05:48;;;;;;;6.50;2.72;;;20.00;99.90;;;;;;5114457;27;20051;-57
2023/08/28 10:08:15;;;;;;;5.38;1.13;;;20.40;99.90;;;;;;5099819;27;20544;-61
2023/08/28 10:10:46;;;;;;;2.83;1.00;;;20.70;99.90;;;;;;5092405;27;20455;-59
2023/08/28 10:13:16;;;;;;;4.57;0.90;;;20.90;99.90;;;;;;5123239;27;20036;-59
2023/08/28 10:16:00;;;;;;;3.83;1.08;;;20.60;99.90;;;;;;5132510;27;20094;-57
2023/08/28 10:18:34;;;;;;;2.92;0.98;;;20.50;99.90;;;;;;5098123;27;20371;-58
2023/08/28 10:21:00;;;;;;;3.67;1.00;;;20.40;99.90;;;;;;5091963;28;20362;-58
2023/08/28 10:23:28;;;;;;;3.35;0.65;;;20.30;99.90;;;;;;5101657;27;20118;-60
2023/08/28 10:25:55;;;;;;;1.50;0.57;;;20.40;99.90;;;;;;5099534;27;20286;-58
2023/08/28 10:28:23;;;;;;;1.85;0.85;;;20.40;99.90;;;;;;5105083;27;20052;-60
2023/08/28 10:30:51;;;;;;;2.75;0.90;;;20.60;99.90;;;;;;5098488;27;20054;-60
2023/08/28 10:33:21;;;;;;;3.55;0.90;;;20.70;99.90;;;;;;5127477;27;20514;-59
2023/08/28 10:35:52;;;;;;;2.88;1.00;;;20.80;99.90;;;;;;5128531;27;20271;-59
2023/08/28 10:38:19;;;;;;;2.05;0.85;;;20.80;99.90;;;;;;5094191;27;20066;-61
2023/08/28 10:40:48;;;;;;;1.83;0.80;;;20.60;99.60;;;;;;5101005;27;20560;-58
2023/08/28 10:43:16;;;;;;;3.30;0.85;;;20.70;99.90;;;;;;5129335;27;20036;-58
2023/08/28 10:45:43;;;;;;;1.83;0.80;;;20.70;99.90;;;;;;5114690;27;20051;-60
2023/08/28 10:48:09;;;;;;;2.45;0.95;;;20.70;99.90;;;;;;5097293;28;20055;-59
2023/08/28 10:50:41;;;;;;;1.83;0.90;;;20.80;99.90;;;;;;5127606;27;20040;-57
2023/08/28 10:53:06;;;;;;;2.40;1.10;;;21.20;99.90;;;;;;5098246;28;20434;-60
2023/08/28 10:55:34;;;;;;;2.60;0.85;;;21.10;99.90;;;;;;5094101;28;20032;-61
2023/08/28 10:58:03;;;;;;;2.47;0.95;;;20.70;99.90;;;;;;5109553;27;20371;-60
2023/08/28 11:00:29;;;;;;;1.85;0.90;;;20.70;99.90;;;;;;5093032;27;20027;-59
2023/08/28 11:03:08;;;;;;;1.63;0.73;;;20.70;99.90;;;;;;5125809;27;20464;-60
2023/08/28 11:05:38;;;;;;;0.95;0.60;;;20.90;99.90;;;;;;5097721;28;20042;-58
2023/08/28 11:08:04;;;;;;;1.30;0.80;;;21.20;99.90;;;;;;5123140;27;20042;-61
2023/08/28 11:10:31;;;;;;;2.30;0.70;;;21.00;99.90;;;;;;5127655;27;20108;-60
2023/08/28 11:13:02;;;;;;;2.80;0.50;;;20.60;99.90;;;;;;5125178;27;20123;-58
2023/08/28 11:15:42;;;;;;;3.72;0.80;;;20.50;99.90;;;;;;5093911;28;20408;-58
2023/08/28 11:18:23;;;;;;;2.78;0.80;;;20.50;99.90;;;;;;5097257;28;20052;-61
2023/08/28 11:21:00;;;;;;;3.72;0.70;;;20.80;99.90;;;;;;5131284;27;20039;-60
2023/08/28 11:23:36;;;;;;;3.35;0.63;;;21.10;99.90;;;;;;5127754;27;20088;-59
2023/08/28 11:26:17;;;;;;;1.65;0.65;;;21.00;99.90;;;;;;5117517;27;20577;-61
2023/08/28 11:28:49;;;;;;;1.65;0.52;;;20.90;99.90;;;;;;5117730;27;20101;-60
2023/08/28 11:31:16;;;;;;;1.55;0.85;;;20.90;99.90;;;;;;5112301;27;20093;-59
2023/08/28 11:34:00;;;;;;;2.42;0.80;;;21.10;99.90;;;;;;5083414;28;20046;-57
2023/08/28 11:36:25;;;;;;;4.03;0.88;;;21.50;99.90;;;;;;5091636;27;20171;-59
2023/08/28 11:38:54;;;;;;;2.20;0.70;;;21.50;99.90;;;;;;5088361;28;20043;-58
2023/08/28 11:41:21;;;;;;;1.48;0.57;;;21.60;99.90;;;;;;5094643;28;20491;-56
2023/08/28 11:43:46;;;;;;;2.80;0.73;;;21.60;99.90;;;;;;5097824;28;20048;-58
2023/08/28 11:46:12;;;;;;;2.17;0.73;;;21.50;99.90;;;;;;5089581;27;20048;-60
2023/08/28 11:48:48;;;;;;;3.00;0.60;;;21.10;99.90;;;;;;5129811;27;20055;-60
2023/08/28 11:51:14;;;;;;;2.85;0.90;;;21.10;99.90;;;;;;5097407;28;20067;-58
2023/08/28 11:53:42;;;;;;;1.02;0.43;;;21.00;99.90;;;;;;5095571;28;20551;-56
2023/08/28 11:56:12;;;;;;;3.22;1.00;;;20.70;99.90;;;;;;5075046;28;20044;-57
2023/08/28 11:58:40;;;;;;;2.28;0.73;;;20.70;99.90;;;;;;5126323;27;20051;-61
2023/08/28 12:01:08;;;;;;;5.10;1.15;;;20.80;99.90;;;;;;5111363;27;20170;-57
2023/08/28 12:03:37;;;;;;;2.80;0.80;;;20.80;99.90;;;;;;5126641;27;20042;-57
2023/08/28 12:06:12;;;;;;;3.42;0.70;;;21.10;99.90;;;;;;5109458;27;21946;-56
2023/08/28 12:08:40;;;;;;;0.95;0.47;;;21.60;99.90;;;;;;5095983;28;20075;-58
2023/08/28 12:11:07;;;;;;;3.05;0.68;;;22.10;99.90;;;;;;5096999;28;20053;-60
2023/08/28 12:13:33;;;;;;;4.35;0.73;;;22.30;99.50;;;;;;5123103;27;20047;-59
2023/08/28 12:16:07;;;;;;;3.22;0.60;;;22.20;99.30;;;;;;5121227;27;20152;-57
2023/08/28 12:18:52;;;;;;;0.70;0.47;;;21.90;99.90;;;;;;5107452;27;20048;-57
2023/08/28 12:21:36;;;;;;;2.10;0.70;;;22.00;99.90;;;;;;5106127;27;20039;-58
2023/08/28 12:24:02;;;;;;;2.92;0.70;;;21.80;99.90;;;;;;5100605;28;20036;-56
2023/08/28 12:26:30;;;;;;;1.75;0.68;;;22.10;99.90;;;;;;5126208;27;20052;-58
2023/08/28 12:28:56;;;;;;;1.45;0.70;;;22.20;99.90;;;;;;5100900;28;20096;-57
2023/08/28 12:31:27;;;;;;;2.00;0.90;;;22.20;99.70;;;;;;5083315;28;20043;-60
2023/08/28 12:33:54;;;;;;;1.52;0.77;;;22.40;99.90;;;;;;5125374;27;20561;-58
2023/08/28 12:36:26;;;;;;;3.33;0.60;;;22.20;99.90;;;;;;5121646;27;20044;-58
2023/08/28 12:38:52;;;;;;;2.13;0.73;;;21.90;99.90;;;;;;5103094;28;20371;-58
2023/08/28 12:41:17;;;;;;;3.15;0.65;;;22.10;99.90;;;;;;5098143;28;20042;-57
2023/08/28 12:43:46;;;;;;;1.98;0.70;;;22.00;99.90;;;;;;5097809;27;20074;-60
2023/08/28 12:46:14;;;;;;;1.98;0.80;;;21.90;99.90;;;;;;5120700;27;20050;-57
2023/08/28 12:48:39;;;;;;;2.40;0.73;;;21.80;99.90;;;;;;5095805;28;20138;-60
2023/08/28 12:51:05;;;;;;;3.53;1.15;;;21.60;99.90;;;;;;5098412;27;20115;-57